createdAt,value
2018-08-17T00:01:49.176Z,5.13
2018-08-17T00:04:51.549Z,5.17
2018-08-17T00:07:53.800Z,8.57
2018-08-17T00:10:56.060Z,4.10
2018-08-17T00:13:58.232Z,4.20
2018-08-17T00:17:00.515Z,5.40
2018-08-17T00:20:02.854Z,5.13
2018-08-17T00:23:05.201Z,6.83
2018-08-17T00:26:07.578Z,4.63
2018-08-17T00:29:09.844Z,5.03
2018-08-17T00:32:12.100Z,4.67
2018-08-17T00:35:14.612Z,5.73
2018-08-17T00:38:16.859Z,3.93
2018-08-17T00:41:19.277Z,7.50
2018-08-17T00:44:21.500Z,4.87
2018-08-17T00:47:23.672Z,5.47
2018-08-17T00:50:25.954Z,5.03
2018-08-17T00:53:28.216Z,5.83
2018-08-17T00:56:30.529Z,4.73
2018-08-17T00:59:32.877Z,5.97
2018-08-17T01:02:35.155Z,5.80
2018-08-17T01:05:37.438Z,6.07
2018-08-17T01:08:39.666Z,4.63
2018-08-17T01:11:41.965Z,4.73
2018-08-17T01:14:44.171Z,8.90
2018-08-17T01:17:46.522Z,4.67
2018-08-17T01:20:48.862Z,5.00
2018-08-17T01:23:51.351Z,7.07
2018-08-17T01:26:53.723Z,4.10
2018-08-17T01:29:56.189Z,8.17
2018-08-17T01:32:58.450Z,4.67
2018-08-17T01:36:00.744Z,4.43
2018-08-17T01:39:04.336Z,8.03
2018-08-17T01:42:06.634Z,4.87
2018-08-17T01:45:08.862Z,4.77
2018-08-17T01:48:12.174Z,5.07
2018-08-17T01:51:14.364Z,4.77
2018-08-17T01:54:16.529Z,5.53
2018-08-17T01:57:18.849Z,7.63
2018-08-17T02:00:21.090Z,4.80
2018-08-17T02:03:23.319Z,5.20
2018-08-17T02:06:25.557Z,4.80
2018-08-17T02:09:27.777Z,4.67
2018-08-17T02:12:30.163Z,4.90
2018-08-17T02:15:32.420Z,5.37
2018-08-17T02:18:34.729Z,6.13
2018-08-17T02:21:37.018Z,4.63
2018-08-17T02:24:39.256Z,3.97
2018-08-17T02:27:42.571Z,5.43
2018-08-17T02:30:44.791Z,6.57
2018-08-17T02:33:46.991Z,5.10
2018-08-17T02:36:49.480Z,4.77
2018-08-17T02:39:51.748Z,5.27
2018-08-17T02:42:53.963Z,6.07
2018-08-17T02:45:56.186Z,4.50
2018-08-17T02:48:58.381Z,4.57
2018-08-17T02:52:00.670Z,5.20
2018-08-17T02:55:02.982Z,6.13
2018-08-17T02:58:05.233Z,5.27
2018-08-17T03:01:07.534Z,5.70
2018-08-17T03:04:09.712Z,5.70
2018-08-17T03:07:12.056Z,7.13
2018-08-17T03:10:20.980Z,5.27
2018-08-17T03:13:23.263Z,4.23
2018-08-17T03:16:25.461Z,5.30
2018-08-17T03:19:27.670Z,6.67
2018-08-17T03:22:29.938Z,5.63
2018-08-17T03:25:32.252Z,8.47
2018-08-17T03:28:34.456Z,5.17
2018-08-17T03:31:36.761Z,6.10
2018-08-17T03:34:38.979Z,7.43
2018-08-17T03:37:41.180Z,7.27
2018-08-17T03:40:43.618Z,5.40
2018-08-17T03:43:45.792Z,5.77
2018-08-17T03:46:48.161Z,5.77
2018-08-17T03:49:50.509Z,7.20
2018-08-17T03:52:52.730Z,5.77
2018-08-17T03:55:54.990Z,5.07
2018-08-17T03:58:57.385Z,6.27
2018-08-17T04:01:59.729Z,6.30
2018-08-17T04:05:02.097Z,6.67
2018-08-17T04:08:05.368Z,6.37
2018-08-17T04:11:07.545Z,5.67
2018-08-17T04:14:09.912Z,6.67
2018-08-17T04:17:12.182Z,7.23
2018-08-17T04:20:14.388Z,7.60
2018-08-17T04:23:16.609Z,7.07
2018-08-17T04:26:18.847Z,8.30
2018-08-17T04:29:21.086Z,7.67
2018-08-17T04:32:23.228Z,9.77
2018-08-17T04:35:25.551Z,7.57
2018-08-17T04:38:27.840Z,7.03
2018-08-17T04:41:30.159Z,6.50
2018-08-17T04:44:32.402Z,9.27
2018-08-17T04:47:34.594Z,10.37
2018-08-17T04:50:36.851Z,9.30
2018-08-17T04:53:39.162Z,6.93
2018-08-17T04:56:41.335Z,10.10
2018-08-17T04:59:43.485Z,6.57
2018-08-17T05:02:45.711Z,9.13
2018-08-17T05:05:47.907Z,5.90
2018-08-17T05:08:50.167Z,5.17
2018-08-17T05:11:52.377Z,8.70
2018-08-17T05:14:54.646Z,5.23
2018-08-17T05:17:56.852Z,6.67
2018-08-17T05:20:59.089Z,6.17
2018-08-17T05:24:01.326Z,6.07
2018-08-17T05:27:04.225Z,5.00
2018-08-17T05:30:06.413Z,5.03
2018-08-17T05:33:08.696Z,9.67
2018-08-17T05:36:11.095Z,6.00
2018-08-17T05:39:13.412Z,6.93
2018-08-17T05:42:15.725Z,5.83
2018-08-17T05:45:17.920Z,6.23
2018-08-17T05:48:20.125Z,5.83
2018-08-17T05:51:22.363Z,8.00
2018-08-17T05:54:24.647Z,9.27
2018-08-17T05:57:26.931Z,7.67
2018-08-17T06:00:29.185Z,8.87
2018-08-17T06:03:31.510Z,9.17
2018-08-17T06:06:34.465Z,10.13
2018-08-17T06:09:36.801Z,11.37
2018-08-17T06:12:38.980Z,10.60
2018-08-17T06:15:41.211Z,11.23
2018-08-17T06:18:43.442Z,11.17
2018-08-17T06:21:45.647Z,13.83
2018-08-17T06:24:48.825Z,12.50
2018-08-17T06:27:51.058Z,13.37
2018-08-17T06:30:53.380Z,15.87
2018-08-17T06:33:55.610Z,14.63
2018-08-17T06:36:57.791Z,13.60
2018-08-17T06:40:00.006Z,16.43
2018-08-17T06:43:02.286Z,15.53
2018-08-17T06:46:04.518Z,16.70
2018-08-17T06:49:06.805Z,19.00
2018-08-17T06:52:09.038Z,22.10
2018-08-17T06:55:11.990Z,21.43
2018-08-17T06:58:14.272Z,19.90
2018-08-17T07:01:16.593Z,19.97
2018-08-17T07:04:18.805Z,20.37
2018-08-17T07:07:21.113Z,23.30
2018-08-17T07:10:23.402Z,23.73
2018-08-17T07:13:25.759Z,24.83
2018-08-17T07:16:27.982Z,21.30
2018-08-17T07:19:30.470Z,25.30
2018-08-17T07:22:34.619Z,25.60
2018-08-17T07:25:36.832Z,25.00
2018-08-17T07:28:39.088Z,23.80
2018-08-17T07:31:41.354Z,25.87
2018-08-17T07:34:43.645Z,24.67
2018-08-17T07:37:45.837Z,28.20
2018-08-17T07:40:48.045Z,24.87
2018-08-17T07:43:50.353Z,21.40
2018-08-17T07:46:52.531Z,21.63
2018-08-17T07:49:54.734Z,21.70
2018-08-17T07:52:56.918Z,21.67
2018-08-17T07:55:59.141Z,22.73
2018-08-17T07:59:01.484Z,22.17
2018-08-17T08:02:03.731Z,23.57
2018-08-17T08:05:07.161Z,19.80
2018-08-17T08:08:09.511Z,24.10
2018-08-17T08:11:11.763Z,25.43
2018-08-17T08:14:14.042Z,20.63
2018-08-17T08:17:16.182Z,20.97
2018-08-17T08:20:29.536Z,23.53
2018-08-17T08:23:31.565Z,19.77
2018-08-17T08:26:33.760Z,21.23
2018-08-17T08:29:36.171Z,22.20
2018-08-17T08:32:39.594Z,19.50
2018-08-17T08:35:41.771Z,19.07
2018-08-17T08:38:43.968Z,20.17
2018-08-17T08:41:46.370Z,19.67
2018-08-17T08:44:48.644Z,24.53
2018-08-17T08:47:50.936Z,19.80
2018-08-17T08:50:53.168Z,20.67
2018-08-17T08:53:55.465Z,22.03
2018-08-17T08:56:57.965Z,17.90
2018-08-17T09:00:00.161Z,17.30
2018-08-17T09:03:02.345Z,21.13
2018-08-17T09:06:04.679Z,17.90
2018-08-17T09:09:07.479Z,15.93
2018-08-17T09:12:09.742Z,18.83
2018-08-17T09:15:12.456Z,15.80
2018-08-17T09:18:14.700Z,18.67
2018-08-17T09:21:17.069Z,16.70
2018-08-17T09:24:19.220Z,19.67
2018-08-17T09:27:21.430Z,17.50
2018-08-17T09:30:24.743Z,17.90
2018-08-17T09:33:26.925Z,14.87
2018-08-17T09:36:29.148Z,16.83
2018-08-17T09:39:31.402Z,18.53
2018-08-17T09:42:33.673Z,16.40
2018-08-17T09:45:36.228Z,14.60
2018-08-17T09:48:38.567Z,17.67
2018-08-17T09:51:40.854Z,16.20
2018-08-17T09:54:43.204Z,17.53
2018-08-17T09:57:45.478Z,15.60
2018-08-17T10:00:53.510Z,16.10
2018-08-17T10:04:01.578Z,13.40
2018-08-17T10:07:10.381Z,12.93
2018-08-17T10:10:16.611Z,16.93
2018-08-17T10:13:18.836Z,17.67
2018-08-17T10:16:21.090Z,13.07
2018-08-17T10:19:23.358Z,11.27
2018-08-17T10:22:25.559Z,12.13
2018-08-17T10:25:27.823Z,14.07
2018-08-17T10:28:30.074Z,11.00
2018-08-17T10:31:32.360Z,11.20
2018-08-17T10:34:34.560Z,10.07
2018-08-17T10:37:36.746Z,14.53
2018-08-17T10:40:39.240Z,11.17
2018-08-17T10:43:41.437Z,11.63
2018-08-17T10:46:43.762Z,11.07
2018-08-17T10:49:45.960Z,12.03
2018-08-17T10:52:50.650Z,16.30
2018-08-17T10:55:52.866Z,15.63
2018-08-17T10:58:55.173Z,11.90
2018-08-17T11:01:58.436Z,10.87
2018-08-17T11:05:00.692Z,13.30
2018-08-17T11:08:03.044Z,11.13
2018-08-17T11:11:06.475Z,11.83
2018-08-17T11:14:08.709Z,11.03
2018-08-17T11:17:11.042Z,10.33
2018-08-17T11:20:14.503Z,13.80
2018-08-17T11:23:17.119Z,11.60
2018-08-17T11:26:19.284Z,11.57
2018-08-17T11:29:21.449Z,12.30
2018-08-17T11:32:23.706Z,8.97
2018-08-17T11:35:25.957Z,12.67
2018-08-17T11:38:28.306Z,8.40
2018-08-17T11:41:30.711Z,9.60
2018-08-17T11:44:32.851Z,8.67
2018-08-17T11:47:35.149Z,10.53
2018-08-17T11:50:37.412Z,8.87
2018-08-17T11:53:39.638Z,9.73
2018-08-17T11:56:41.942Z,10.63
2018-08-17T11:59:48.791Z,9.73
2018-08-17T12:02:51.097Z,8.30
2018-08-17T12:05:53.373Z,8.20
2018-08-17T12:08:55.757Z,9.23
2018-08-17T12:11:57.999Z,8.93
2018-08-17T12:15:00.583Z,8.67
2018-08-17T12:18:02.884Z,7.50
2018-08-17T12:21:05.240Z,7.77
2018-08-17T12:24:07.640Z,7.20
2018-08-17T12:27:11.042Z,9.50
2018-08-17T12:30:13.324Z,8.50
2018-08-17T12:33:15.547Z,7.00
2018-08-17T12:36:17.897Z,6.50
2018-08-17T12:39:20.455Z,7.33
2018-08-17T12:42:22.851Z,9.50
2018-08-17T12:45:57.473Z,8.10
2018-08-17T12:48:59.764Z,6.83
2018-08-17T12:52:01.970Z,7.83
2018-08-17T12:55:05.113Z,6.77
2018-08-17T12:58:07.426Z,7.33
2018-08-17T13:01:09.658Z,7.17
2018-08-17T13:04:12.595Z,7.73
2018-08-17T13:07:14.968Z,8.27
2018-08-17T13:10:17.502Z,7.83
2018-08-17T13:13:19.824Z,9.03
2018-08-17T13:16:22.043Z,6.73
2018-08-17T13:19:24.262Z,5.43
2018-08-17T13:22:26.464Z,9.23
2018-08-17T13:25:28.788Z,8.60
2018-08-17T13:28:31.120Z,7.27
2018-08-17T13:31:33.401Z,7.33
2018-08-17T13:34:35.620Z,6.67
2018-08-17T13:37:38.018Z,5.67
2018-08-17T13:40:40.224Z,5.00
2018-08-17T13:43:42.682Z,8.07
2018-08-17T13:46:44.900Z,6.13
2018-08-17T13:49:47.078Z,8.73
2018-08-17T13:52:49.321Z,4.13
2018-08-17T13:55:51.657Z,3.93
2018-08-17T13:58:53.883Z,5.63
2018-08-17T14:01:56.111Z,3.90
2018-08-17T14:04:59.538Z,6.43
2018-08-17T14:08:01.742Z,5.33
2018-08-17T14:11:04.082Z,4.70
2018-08-17T14:14:06.321Z,4.53
2018-08-17T14:17:08.728Z,4.70
2018-08-17T14:20:13.866Z,6.23
2018-08-17T14:23:16.172Z,5.43
2018-08-17T14:26:18.479Z,5.70
2018-08-17T14:29:20.777Z,5.83
2018-08-17T14:32:23.084Z,6.40
2018-08-17T14:35:25.504Z,7.57
2018-08-17T14:38:29.023Z,7.00
2018-08-17T14:41:31.269Z,7.93
2018-08-17T14:44:34.819Z,8.10
2018-08-17T14:51:43.156Z,9.10
2018-08-17T14:54:45.468Z,9.20
2018-08-17T14:57:47.710Z,9.60
2018-08-17T15:00:49.970Z,9.63
2018-08-17T15:03:52.204Z,8.70
2018-08-17T15:06:55.817Z,8.57
2018-08-17T15:09:58.213Z,10.20
2018-08-17T15:13:00.503Z,9.67
2018-08-17T15:16:02.835Z,10.60
2018-08-17T15:19:05.204Z,11.77
2018-08-17T15:22:07.548Z,9.60
2018-08-17T15:25:09.873Z,9.73
2018-08-17T15:28:12.302Z,9.83
2018-08-17T15:31:14.847Z,9.90
2018-08-17T15:34:17.175Z,10.00
2018-08-17T15:37:19.639Z,14.13
2018-08-17T15:40:21.994Z,10.63
2018-08-17T15:43:24.336Z,13.40
2018-08-17T15:46:26.769Z,12.67
2018-08-17T15:49:34.954Z,14.10
2018-08-17T15:52:37.278Z,15.73
2018-08-17T15:55:39.554Z,15.10
2018-08-17T15:58:41.808Z,13.87
2018-08-17T16:01:44.217Z,16.57
2018-08-17T16:04:46.580Z,17.07
2018-08-17T16:07:48.727Z,15.17
2018-08-17T16:10:51.061Z,15.57
2018-08-17T16:13:53.379Z,16.47
2018-08-17T16:16:55.658Z,14.53
2018-08-17T16:19:57.977Z,15.90
2018-08-17T16:23:01.426Z,17.30
2018-08-17T16:26:03.861Z,14.30
2018-08-17T16:29:06.250Z,14.40
2018-08-17T16:32:08.490Z,14.60
2018-08-17T16:35:11.185Z,15.87
2018-08-17T16:38:13.495Z,13.83
2018-08-17T16:41:15.693Z,15.07
2018-08-17T16:44:17.914Z,13.70
2018-08-17T16:47:20.278Z,13.07
2018-08-17T16:50:22.617Z,12.57
2018-08-17T16:53:24.907Z,13.87
2018-08-17T16:56:30.109Z,12.80
2018-08-17T16:59:32.317Z,12.90
2018-08-17T17:02:34.509Z,11.63
2018-08-17T17:05:36.796Z,11.73
2018-08-17T17:08:39.015Z,13.03
2018-08-17T17:11:41.291Z,11.73
2018-08-17T17:14:44.129Z,12.40
2018-08-17T17:17:54.519Z,12.10
2018-08-17T17:20:56.697Z,13.33
2018-08-17T17:23:59.385Z,15.73
2018-08-17T17:27:01.894Z,16.70
2018-08-17T17:30:05.444Z,12.77
2018-08-17T17:33:07.928Z,12.43
2018-08-17T17:36:10.142Z,11.93
2018-08-17T17:39:13.638Z,13.07
2018-08-17T17:42:15.790Z,13.30
2018-08-17T17:45:17.974Z,12.90
2018-08-17T17:48:20.128Z,13.27
2018-08-17T17:51:22.300Z,15.73
2018-08-17T17:54:25.302Z,16.90
2018-08-17T17:57:27.501Z,17.47
2018-08-17T18:00:30.071Z,13.80
2018-08-17T18:03:32.225Z,14.67
2018-08-17T18:06:34.415Z,15.23
2018-08-17T18:09:36.674Z,13.13
2018-08-17T18:12:38.903Z,12.97
2018-08-17T18:15:41.141Z,12.97
2018-08-17T18:18:43.371Z,14.53
2018-08-17T18:21:45.674Z,14.80
2018-08-17T18:24:47.924Z,14.80
2018-08-17T18:27:50.114Z,15.33
2018-08-17T18:30:52.417Z,13.77
2018-08-17T18:33:54.682Z,15.10
2018-08-17T18:36:56.964Z,13.80
2018-08-17T18:39:59.213Z,15.13
2018-08-17T18:43:01.472Z,14.77
2018-08-17T18:46:03.765Z,14.97
2018-08-17T18:49:06.242Z,14.90
2018-08-17T18:52:08.532Z,14.53
2018-08-17T18:55:10.816Z,14.07
2018-08-17T18:58:13.014Z,15.03
2018-08-17T19:01:15.250Z,14.00
2018-08-17T19:04:17.630Z,14.17
2018-08-17T19:07:19.931Z,15.17
2018-08-17T19:10:22.183Z,14.60
2018-08-17T19:13:24.449Z,15.17
2018-08-17T19:16:26.745Z,15.17
2018-08-17T19:19:28.962Z,14.47
2018-08-17T19:22:36.628Z,15.63
2018-08-17T19:25:39.722Z,14.33
2018-08-17T19:28:42.016Z,14.87
2018-08-17T19:31:50.100Z,14.37
2018-08-17T19:34:52.305Z,12.83
2018-08-17T19:37:54.562Z,13.77
2018-08-17T19:40:57.616Z,14.17
2018-08-17T19:43:59.806Z,13.60
2018-08-17T19:47:02.227Z,12.00
2018-08-17T19:50:04.573Z,14.43
2018-08-17T19:53:06.930Z,11.30
2018-08-17T19:56:09.395Z,10.87
2018-08-17T19:59:11.663Z,10.73
2018-08-17T20:02:13.894Z,10.93
2018-08-17T20:05:16.124Z,11.37
2018-08-17T20:08:18.463Z,10.13
2018-08-17T20:11:20.738Z,10.27
2018-08-17T20:14:22.939Z,10.03
2018-08-17T20:17:25.285Z,11.20
2018-08-17T20:20:27.473Z,11.77
2018-08-17T20:23:29.810Z,10.90
2018-08-17T20:26:32.446Z,10.00
2018-08-17T20:29:34.428Z,10.77
2018-08-17T20:32:36.637Z,11.47
2018-08-17T20:35:38.946Z,13.47
2018-08-17T20:38:41.349Z,11.37
2018-08-17T20:41:43.629Z,11.50
2018-08-17T20:44:45.782Z,11.53
2018-08-17T20:47:48.059Z,10.77
2018-08-17T20:50:50.213Z,10.60
2018-08-17T20:53:54.629Z,10.00
2018-08-17T20:56:57.054Z,10.80
2018-08-17T20:59:59.254Z,10.70
2018-08-17T21:03:01.702Z,10.67
2018-08-17T21:06:04.047Z,11.23
2018-08-17T21:09:06.998Z,9.23
2018-08-17T21:12:09.298Z,10.23
2018-08-17T21:15:11.619Z,10.73
2018-08-17T21:18:13.810Z,10.43
2018-08-17T21:21:16.102Z,9.07
2018-08-17T21:24:18.404Z,9.50
2018-08-17T21:27:20.750Z,8.27
2018-08-17T21:30:23.001Z,8.90
2018-08-17T21:33:25.284Z,8.07
2018-08-17T21:36:27.480Z,10.47
2018-08-17T21:39:29.785Z,8.87
2018-08-17T21:42:31.974Z,7.57
2018-08-17T21:45:34.190Z,7.80
2018-08-17T21:48:37.448Z,7.17
2018-08-17T21:51:39.640Z,7.57
2018-08-17T21:54:41.888Z,7.33
2018-08-17T21:57:44.114Z,6.87
2018-08-17T22:00:46.370Z,8.53
2018-08-17T22:03:48.638Z,7.30
2018-08-17T22:06:50.924Z,7.80
2018-08-17T22:09:53.734Z,6.90
2018-08-17T22:12:55.975Z,7.40
2018-08-17T22:15:58.422Z,7.40
2018-08-17T22:19:00.710Z,7.50
2018-08-17T22:22:02.875Z,9.13
2018-08-17T22:25:10.921Z,7.67
2018-08-17T22:28:13.298Z,6.90
2018-08-17T22:31:18.965Z,7.37
2018-08-17T22:34:21.149Z,8.33
2018-08-17T22:37:23.472Z,7.30
2018-08-17T22:40:25.674Z,7.33
2018-08-17T22:43:27.920Z,7.77
2018-08-17T22:46:30.165Z,6.97
2018-08-17T22:49:32.883Z,12.20
2018-08-17T22:52:35.154Z,7.77
2018-08-17T22:55:37.403Z,7.00
2018-08-17T22:58:45.168Z,8.47
2018-08-17T23:01:47.350Z,8.03
2018-08-17T23:04:49.672Z,8.53
2018-08-17T23:07:51.985Z,8.07
2018-08-17T23:10:54.339Z,8.20
2018-08-17T23:13:59.337Z,8.80
2018-08-17T23:17:01.722Z,8.23
2018-08-17T23:20:04.730Z,8.47
2018-08-17T23:23:07.340Z,9.77
2018-08-17T23:26:09.552Z,8.60
2018-08-17T23:29:11.833Z,8.37
2018-08-17T23:32:14.065Z,8.20
2018-08-17T23:35:16.443Z,8.03
2018-08-17T23:38:18.734Z,7.40
2018-08-17T23:41:21.109Z,10.07
2018-08-17T23:44:23.340Z,9.40
2018-08-17T23:47:25.533Z,9.17
2018-08-17T23:50:27.794Z,8.33
2018-08-17T23:53:30.113Z,8.13
2018-08-17T23:56:32.332Z,9.93
2018-08-17T23:59:34.563Z,10.63
